»·PEaware :: WAT476 KLAS-KONT

WAT476 :: KLAS-KONT

FLIGHT INFORMATION

Flight Status: Arrived
Operator:
Walker Air Transport
More flights by this operator :: More flights under this callsign
Pilot: Eduardo G. (33126)
Aircraft: AIRBUS A300B4-600
(A306)
More flights by this aircraft type
Origin: KLAS McCarran Intl
United States
Destination: KONT Ontario Intl
United States
More flights between these airports :: More routes between these airports
Route: BOACH8 WHIGG FEYLA JCKIE2
File this flight plan on PilotEdge
Remarks:
Altitude:
(Current/Filed)
26,000ft
Speed:
(Current/Filed)
452kts
Departed: 24-Jan-21 07:40 PM
Arrived: 24-Jan-21 08:17 PM
Distance/Time
Traveled:
171nm/0:36
Distance/Time
To Go:
Arrived

Flight Plot

Page will automatically refresh every two minutes.

Flight plan parsing failed; only flown route is shown


Map Options




Map Legend


Flown Route
Filed Route
Departure Airport
Arrival Airport
Navaid (VOR, NDB)
Fix

Horizontal Profiles

Position Reports

Time Latitude Longitude Heading Altitude Ground
Speed
24-Jan-21 19:14 36.081212 -115.125676 89 2194ft 0kts
24-Jan-21 19:16 36.081212 -115.125676 89 2194ft 0kts
24-Jan-21 19:16 36.081212 -115.125676 89 2194ft 0kts
24-Jan-21 19:17 36.081212 -115.125676 89 2194ft 0kts
24-Jan-21 19:18 36.081212 -115.125676 89 2194ft 0kts
24-Jan-21 19:19 36.081212 -115.125676 89 2194ft 0kts
24-Jan-21 19:20 36.081212 -115.125676 89 2194ft 0kts
24-Jan-21 19:21 36.081212 -115.125676 89 2194ft 0kts
24-Jan-21 19:22 36.081212 -115.125676 89 2194ft 0kts
24-Jan-21 19:23 36.081212 -115.125676 89 2194ft 0kts
24-Jan-21 19:24 36.081212 -115.125676 89 2194ft 0kts
24-Jan-21 19:25 36.081212 -115.125676 89 2194ft 0kts
24-Jan-21 19:26 36.081212 -115.125676 89 2194ft 0kts
24-Jan-21 19:27 36.081212 -115.125677 89 2194ft 0kts
24-Jan-21 19:28 36.081206 -115.126087 99 2194ft 2kts
24-Jan-21 19:29 36.081498 -115.126388 180 2194ft 0kts
24-Jan-21 19:31 36.081498 -115.126388 180 2194ft 0kts
24-Jan-21 19:31 36.081498 -115.126388 180 2194ft 0kts
24-Jan-21 19:32 36.081498 -115.126388 180 2194ft 0kts
24-Jan-21 19:33 36.079883 -115.126384 180 2194ft 0kts
24-Jan-21 19:34 36.079883 -115.126384 180 2194ft 0kts
24-Jan-21 19:35 36.079883 -115.126384 180 2194ft 0kts
24-Jan-21 19:36 36.078272 -115.125621 88 2194ft 11kts
24-Jan-21 19:37 36.077514 -115.121572 137 2194ft 0kts
24-Jan-21 19:38 36.077403 -115.121457 144 2194ft 5kts
24-Jan-21 19:39 36.076410 -115.128898 270 2194ft 95kts
24-Jan-21 19:40 36.078472 -115.191343 266 3942ft 219kts
24-Jan-21 19:41 36.049877 -115.262578 208 6551ft 266kts
24-Jan-21 19:42 35.980187 -115.296887 203 6995ft 271kts
24-Jan-21 19:43 35.904367 -115.310369 188 8279ft 278kts
24-Jan-21 19:44 35.824063 -115.314780 176 11310ft 321kts
24-Jan-21 19:45 35.725111 -115.309163 190 13766ft 379kts
24-Jan-21 19:46 35.630229 -115.366535 226 16927ft 397kts
24-Jan-21 19:47 35.552688 -115.467045 230 18830ft 409kts
24-Jan-21 19:48 35.475837 -115.569542 230 18902ft 409kts
24-Jan-21 19:49 35.397856 -115.674167 231 21820ft 420kts
24-Jan-21 19:50 35.317543 -115.781959 231 24140ft 431kts
24-Jan-21 19:51 35.236222 -115.890985 231 25625ft 439kts
24-Jan-21 19:52 35.157792 -115.994724 232 25840ft 386kts
24-Jan-21 19:53 35.085799 -116.089998 232 25848ft 382kts
24-Jan-21 19:54 35.012324 -116.187299 232 25847ft 403kts
24-Jan-21 19:55 34.932682 -116.280160 227 24276ft 373kts
24-Jan-21 19:56 34.861361 -116.360747 229 22259ft 330kts
24-Jan-21 19:57 34.798523 -116.438937 236 20264ft 327kts
24-Jan-21 19:58 34.745016 -116.526895 237 18232ft 326kts
24-Jan-21 19:59 34.691421 -116.616505 238 16845ft 318kts
24-Jan-21 20:00 34.641186 -116.700328 237 15724ft 309kts
24-Jan-21 20:01 34.593091 -116.785325 243 14010ft 288kts
24-Jan-21 20:02 34.556067 -116.866930 243 12402ft 275kts
24-Jan-21 20:03 34.511826 -116.941782 230 11088ft 276kts
24-Jan-21 20:04 34.463234 -117.008621 231 10911ft 259kts
24-Jan-21 20:05 34.400753 -117.057434 210 9933ft 274kts
24-Jan-21 20:06 34.333751 -117.091570 210 9918ft 261kts
24-Jan-21 20:07 34.271588 -117.139644 212 8959ft 261kts
24-Jan-21 20:08 34.214567 -117.182309 213 8031ft 231kts
24-Jan-21 20:09 34.167027 -117.228342 224 7211ft 215kts
24-Jan-21 20:10 34.124410 -117.281108 226 6089ft 221kts
24-Jan-21 20:11 34.081381 -117.333570 225 5179ft 224kts
24-Jan-21 20:12 34.054729 -117.396492 267 3799ft 224kts
24-Jan-21 20:13 34.054974 -117.470448 270 2788ft 191kts
24-Jan-21 20:14 34.055034 -117.527298 268 1874ft 145kts
24-Jan-21 20:15 34.055000 -117.575076 268 1115ft 138kts
24-Jan-21 20:16 34.054722 -117.604208 204 956ft 14kts
24-Jan-21 20:17 34.054135 -117.603728 119 956ft 0kts
24-Jan-21 20:18 34.053582 -117.602537 167 956ft 6kts
24-Jan-21 20:19 34.052443 -117.601572 173 956ft 6kts
24-Jan-21 20:20 34.052576 -117.600842 44 956ft 0kts

Navigation Log

Ident Type
Flight plan parsing failed, navigation log unavailable